LGKL

Kalamata International Airport

Airport
ICAO code
LGKL
IATA Code
KLX
Summary
ICAO Region
EUR
ICAO Territory
Location

Kalamata, Messenia

Serving
Kalamata
Elevation
26 ft
Coordinates
37° 4' 6" N , 22° 1' 30" E
KCC
Metar
LGKL 040950Z 17006KT CAVOK 17/10 Q1014

Kalamata International Airport "Captain Vassilis Constantakopoulos" is an airport in the city of Kalamata, Greece.

Climatology

Warm mediterranean climate (Köppen climate classification Csa)

Runways

Designator Length Width Surface Rops
17R/35L 2822 45 ASP Yes/Yes

Airport map

Aerial View

SKYbrary Partners:

Safety knowledge contributed by: